Impacts TAF Board INFO
FOR SITUATIONAL AWARENESS. NOT TO BE USED FOR FLIGHT PLANNING PURPOSES.
IDs:

KDFW - Dallas-Ft Worth Intl, TX, US

Issued at 2330 UTC 17 Aug 2018
Updated at 0128 UTC 18 Aug 2018
Potential Impact None Slight Moderate High
Time<<18/14Z 18/15Z 18/16Z 18/17Z 18/18Z 18/19Z 18/20Z 18/21Z 18/22Z 18/23Z 19/00Z 19/01Z 19/02Z>>
Type PRVL PRVL PRVL PRVL PRVL PRVL PRVL PRVL PRVL PRVL PRVL PRVL PRVL
VIS >6 >6 >6 >6 >6 >6 >6 >6 >6 >6 >6 >6 >6
CIG 150 150 150 150 150 150 150 150 70 70 70 70 --
Cover BKN BKN BKN BKN BKN BKN BKN BKN BKN BKN BKN BKN SCT
FltCat VFR VFR VFR VFR VFR VFR VFR VFR VFR VFR VFR VFR VFR
WX -- -- -- -- -- -- -- -- VCTS VCTS VCTS VCTS --
WDir 190 250 250 250 250 250 250 250 250 250 250 250 220
WSpd 10 8 8 8 8 8 8 8 7 7 7 7 8
WGst -- -- -- -- -- -- -- -- -- -- -- -- --

Raw TAF
KDFW 172330Z 1800/1906 19010KT P6SM FEW250
  FM180800 19009KT P6SM VCSH BKN080
  FM181100 19010KT P6SM SCT080 BKN150
  FM181500 25008KT P6SM SCT080 BKN150
  FM182200 25007KT P6SM VCTS BKN070CB
  FM190200 22008KT P6SM SCT070


METAR Board
Radar Display
Forecast Discussion

FOR SITUATIONAL AWARENESS. NOT TO BE USED FOR FLIGHT PLANNING PURPOSES.